createdAt,value
2022-12-11T00:00:05.266Z,4.34
2022-12-11T00:05:20.140Z,4.28
2022-12-11T00:10:37.881Z,4.28
2022-12-11T00:15:49.906Z,4.4
2022-12-11T00:20:16.097Z,4.4
2022-12-11T00:24:59.700Z,4.33
2022-12-11T00:30:07.554Z,4.33
2022-12-11T00:35:16.653Z,4.41
2022-12-11T00:40:26.433Z,4.41
2022-12-11T00:45:35.172Z,4.36
2022-12-11T00:50:45.948Z,4.36
2022-12-11T00:55:55.077Z,4.37
2022-12-11T01:01:03.775Z,4.37
2022-12-11T01:06:13.312Z,4.29
2022-12-11T01:11:21.813Z,4.29
2022-12-11T01:16:32.009Z,4.18
2022-12-11T01:21:41.343Z,4.18
2022-12-11T01:26:51.065Z,4.21
2022-12-11T01:32:00.189Z,4.21
2022-12-11T01:37:08.669Z,4.28
2022-12-11T01:42:17.840Z,4.28
2022-12-11T01:47:26.909Z,4.16
2022-12-11T01:52:36.693Z,4.16
2022-12-11T01:57:45.147Z,4.14
2022-12-11T02:02:54.457Z,4.14
2022-12-11T02:08:02.574Z,4.14
2022-12-11T02:13:11.241Z,4.14
2022-12-11T02:18:19.704Z,4.29
2022-12-11T02:23:28.197Z,4.29
2022-12-11T02:28:37.941Z,4.31
2022-12-11T02:33:47.073Z,4.31
2022-12-11T02:38:56.853Z,4.51
2022-12-11T02:44:05.322Z,4.51
2022-12-11T02:49:15.071Z,4.48
2022-12-11T02:54:23.584Z,4.48
2022-12-11T02:59:32.675Z,4.56
2022-12-11T03:04:42.455Z,4.51
2022-12-11T03:09:50.931Z,4.51
2022-12-11T03:15:00.728Z,4.61
2022-12-11T03:20:11.063Z,4.61
2022-12-11T03:25:20.186Z,4.54
2022-12-11T03:30:30.590Z,4.54
2022-12-11T03:35:47.345Z,4.56
2022-12-11T03:41:02.288Z,4.56
2022-12-11T03:46:17.157Z,4.55
2022-12-11T03:51:32.008Z,4.55
2022-12-11T03:56:46.860Z,4.58
2022-12-11T04:02:01.830Z,4.58
2022-12-11T04:07:17.906Z,4.66
2022-12-11T04:12:33.408Z,4.66
2022-12-11T04:17:48.983Z,4.5
2022-12-11T04:23:04.457Z,4.5
2022-12-11T04:28:19.981Z,4.33
2022-12-11T04:32:46.180Z,4.33
2022-12-11T04:37:27.900Z,4.25
2022-12-11T04:42:37.638Z,4.25
2022-12-11T04:47:48.059Z,4.29
2022-12-11T04:52:57.142Z,4.29
2022-12-11T04:58:06.268Z,4.22
2022-12-11T05:03:15.396Z,4.22
2022-12-11T05:08:25.516Z,4.27
2022-12-11T05:13:33.672Z,4.27
2022-12-11T05:18:42.115Z,4.23
2022-12-11T05:23:51.228Z,4.23
2022-12-11T05:29:01.037Z,4.18
2022-12-11T05:34:10.746Z,4.18
2022-12-11T05:39:20.543Z,4.18
2022-12-11T05:44:30.267Z,4.18
2022-12-11T05:49:38.757Z,4.16
2022-12-11T05:54:47.262Z,4.16
2022-12-11T05:59:56.991Z,4.14
2022-12-11T06:05:06.163Z,4.24
2022-12-11T06:10:15.872Z,4.24
2022-12-11T06:15:24.354Z,4.23
2022-12-11T06:20:33.502Z,4.23
2022-12-11T06:25:41.948Z,4.25
2022-12-11T06:30:50.438Z,4.25
2022-12-11T06:35:59.588Z,4.21
2022-12-11T06:41:08.063Z,4.21
2022-12-11T06:46:17.485Z,4.2
2022-12-11T06:51:25.642Z,4.2
2022-12-11T06:56:34.146Z,4.21
2022-12-11T07:01:43.894Z,4.21
2022-12-11T07:06:52.353Z,4.26
2022-12-11T07:12:02.093Z,4.26
2022-12-11T07:17:10.591Z,4.16
2022-12-11T07:22:19.743Z,4.16
2022-12-11T07:27:28.834Z,4.16
2022-12-11T07:32:38.796Z,4.16
2022-12-11T07:37:47.733Z,4.19
2022-12-11T07:42:59.423Z,4.19
2022-12-11T07:48:14.429Z,4.03
2022-12-11T07:53:30.385Z,4.03
2022-12-11T07:58:45.259Z,3.99
2022-12-11T08:04:01.528Z,3.99
2022-12-11T08:09:20.884Z,4
2022-12-11T08:14:32.462Z,4
2022-12-11T08:19:47.985Z,4
2022-12-11T08:25:04.792Z,4
2022-12-11T08:30:24.237Z,3.96
2022-12-11T08:35:38.376Z,3.96
2022-12-11T08:40:03.931Z,3.89
2022-12-11T08:44:46.295Z,3.89
2022-12-11T08:49:55.399Z,3.93
2022-12-11T08:55:03.880Z,3.93
2022-12-11T09:00:14.271Z,3.91
2022-12-11T09:05:24.043Z,3.92
2022-12-11T09:10:33.168Z,3.92
2022-12-11T09:15:43.091Z,3.97
2022-12-11T09:21:20.182Z,3.97
2022-12-11T09:26:35.664Z,3.99
2022-12-11T09:31:51.234Z,3.99
2022-12-11T09:37:06.066Z,3.98
2022-12-11T09:42:22.236Z,3.98
2022-12-11T09:47:37.851Z,3.99
2022-12-11T09:52:53.253Z,3.99
2022-12-11T09:56:53.947Z,3.97
2022-12-11T10:02:02.492Z,3.97
2022-12-11T10:07:12.226Z,3.99
2022-12-11T10:12:20.046Z,3.99
2022-12-11T10:17:28.548Z,3.96
2022-12-11T10:22:38.312Z,3.96
2022-12-11T10:27:47.405Z,4.06
2022-12-11T10:32:56.524Z,4.06
2022-12-11T10:38:06.919Z,3.92
2022-12-11T10:43:16.673Z,3.92
2022-12-11T10:48:25.808Z,3.89
2022-12-11T10:53:35.552Z,3.89
2022-12-11T10:58:44.061Z,3.92
2022-12-11T11:03:53.173Z,3.92
2022-12-11T11:09:01.638Z,4.01
2022-12-11T11:14:11.417Z,4.01
2022-12-11T11:19:20.508Z,4
2022-12-11T11:24:30.311Z,4
2022-12-11T11:29:38.142Z,3.89
2022-12-11T11:34:47.868Z,3.89
2022-12-11T11:39:56.332Z,3.92
2022-12-11T11:45:05.491Z,3.92
2022-12-11T11:50:13.955Z,3.93
2022-12-11T11:55:24.337Z,3.93
2022-12-11T12:00:34.385Z,4.06
2022-12-11T12:05:40.659Z,4.06
2022-12-11T12:10:49.795Z,3.89
2022-12-11T12:15:59.857Z,3.88
2022-12-11T12:21:09.308Z,3.88
2022-12-11T12:26:19.066Z,3.98
2022-12-11T12:28:18.757Z,3.98
2022-12-11T12:33:31.703Z,3.98
2022-12-11T12:38:43.379Z,3.96
2022-12-11T12:43:53.492Z,3.96
2022-12-11T12:49:02.281Z,3.93
2022-12-11T12:54:28.056Z,3.93
2022-12-11T12:59:37.149Z,4
2022-12-11T13:04:56.947Z,4
2022-12-11T13:09:56.031Z,3.99
2022-12-11T13:15:04.505Z,3.99
2022-12-11T13:20:14.281Z,3.92
2022-12-11T13:25:23.379Z,3.92
2022-12-11T13:30:32.537Z,3.95
2022-12-11T13:35:41.619Z,3.95
2022-12-11T13:40:50.105Z,3.94
2022-12-11T13:45:59.487Z,3.93
2022-12-11T13:51:08.368Z,3.93
2022-12-11T13:56:16.826Z,3.9
2022-12-11T14:01:25.496Z,3.9
2022-12-11T14:06:35.066Z,3.91
2022-12-11T14:11:43.564Z,3.91
2022-12-11T14:16:53.668Z,3.93
2022-12-11T14:22:02.433Z,3.93
2022-12-11T14:27:13.459Z,3.97
2022-12-11T14:32:23.235Z,3.97
2022-12-11T14:37:31.738Z,3.99
2022-12-11T14:42:40.842Z,3.99
2022-12-11T14:47:49.312Z,3.98
2022-12-11T14:53:04.945Z,3.98
2022-12-11T14:58:20.942Z,4.02
2022-12-11T15:03:37.825Z,4.02
2022-12-11T15:08:52.622Z,3.98
2022-12-11T15:14:07.517Z,3.98
2022-12-11T15:19:24.337Z,4.01
2022-12-11T15:24:40.452Z,4.01
2022-12-11T15:29:55.345Z,4.04
2022-12-11T15:35:10.224Z,4.04
2022-12-11T15:40:26.382Z,4.04
2022-12-11T15:45:41.900Z,4.04
2022-12-11T15:50:06.778Z,4.08
2022-12-11T15:54:48.514Z,4.08
2022-12-11T15:59:58.302Z,4.06
2022-12-11T16:05:06.743Z,4.06
2022-12-11T16:10:15.232Z,4.1
2022-12-11T16:15:25.441Z,4.1
2022-12-11T16:20:32.842Z,4.02
2022-12-11T16:25:43.573Z,4.02
2022-12-11T16:30:52.587Z,4.13
2022-12-11T16:36:01.470Z,4.13
2022-12-11T16:41:10.620Z,4.12
2022-12-11T16:46:18.799Z,4.12
2022-12-11T16:51:26.925Z,4.2
2022-12-11T16:56:35.383Z,4.18
2022-12-11T17:01:44.123Z,4.18
2022-12-11T17:06:52.378Z,4.13
2022-12-11T17:12:00.809Z,4.13
2022-12-11T17:17:09.332Z,4.18
2022-12-11T17:22:17.786Z,4.18
2022-12-11T17:27:26.295Z,4.19
2022-12-11T17:32:36.677Z,4.19
2022-12-11T17:37:46.497Z,4.22
2022-12-11T17:42:54.912Z,4.22
2022-12-11T17:48:03.394Z,4.25
2022-12-11T17:53:12.554Z,4.25
2022-12-11T17:58:21.645Z,4.22
2022-12-11T18:03:32.314Z,4.22
2022-12-11T18:08:40.693Z,4.23
2022-12-11T18:13:49.637Z,4.23
2022-12-11T18:18:58.164Z,4.2
2022-12-11T18:24:05.975Z,4.2
2022-12-11T18:29:15.082Z,4.28
2022-12-11T18:34:23.549Z,4.28
2022-12-11T18:39:32.715Z,4.2
2022-12-11T18:44:41.156Z,4.2
2022-12-11T18:49:48.985Z,4.35
2022-12-11T18:54:58.779Z,4.35
2022-12-11T19:00:12.304Z,4.32
2022-12-11T19:05:30.995Z,4.32
2022-12-11T19:10:44.656Z,4.24
2022-12-11T19:16:00.856Z,4.24
2022-12-11T19:21:15.669Z,4.34
2022-12-11T19:26:30.831Z,4.34
2022-12-11T19:31:45.485Z,4.3
2022-12-11T19:37:01.624Z,4.3
2022-12-11T19:42:18.418Z,4.3
2022-12-11T19:47:33.977Z,4.3
2022-12-11T19:52:51.346Z,4.25
2022-12-11T19:57:16.880Z,4.25
2022-12-11T20:01:56.996Z,4.38
2022-12-11T20:07:05.824Z,4.33
2022-12-11T20:12:14.913Z,4.33
2022-12-11T20:17:25.603Z,4.46
2022-12-11T20:22:34.430Z,4.46
2022-12-11T20:27:43.577Z,4.35
2022-12-11T20:32:53.330Z,4.35
2022-12-11T20:38:03.076Z,4.41
2022-12-11T20:43:11.583Z,4.41
2022-12-11T20:48:21.310Z,4.4
2022-12-11T20:53:31.103Z,4.4
2022-12-11T20:58:40.208Z,4.48
2022-12-11T21:03:48.671Z,4.48
2022-12-11T21:08:57.820Z,4.46
2022-12-11T21:14:07.551Z,4.46
2022-12-11T21:19:17.494Z,4.48
2022-12-11T21:24:25.784Z,4.48
2022-12-11T21:29:35.570Z,4.53
2022-12-11T21:34:44.081Z,4.53
2022-12-11T21:39:53.783Z,4.52
2022-12-11T21:50:12.042Z,4.6
2022-12-11T21:55:21.159Z,4.6
2022-12-11T22:00:30.308Z,4.58
2022-12-11T22:05:38.739Z,4.58
2022-12-11T22:10:48.507Z,4.75
2022-12-11T22:15:57.033Z,4.75
2022-12-11T22:21:06.747Z,4.6
2022-12-11T22:26:16.541Z,4.6
2022-12-11T22:31:26.279Z,4.54
2022-12-11T22:36:36.052Z,4.54
2022-12-11T22:41:45.780Z,4.58
2022-12-11T22:46:55.605Z,4.58
2022-12-11T22:52:04.032Z,4.66
2022-12-11T22:57:13.144Z,4.66
2022-12-11T23:02:22.558Z,4.69
2022-12-11T23:07:34.565Z,4.68
2022-12-11T23:12:50.093Z,4.68
2022-12-11T23:18:06.335Z,4.68
2022-12-11T23:23:22.446Z,4.68
2022-12-11T23:28:38.543Z,4.64
2022-12-11T23:33:54.095Z,4.64
2022-12-11T23:39:09.581Z,4.77
2022-12-11T23:44:25.125Z,4.77
2022-12-11T23:49:42.541Z,4.65
2022-12-11T23:54:58.736Z,4.65
